sensor_id;sensor_type;location;lat;lon;timestamp;temperature;humidity
75105;DHT22;64778;47.314;8.466;2023-02-01T00:01:23;3.10;75.50
75105;DHT22;64778;47.314;8.466;2023-02-01T00:03:49;3.00;75.80
75105;DHT22;64778;47.314;8.466;2023-02-01T00:06:19;3.00;76.00
75105;DHT22;64778;47.314;8.466;2023-02-01T00:08:51;3.00;75.90
75105;DHT22;64778;47.314;8.466;2023-02-01T00:11:17;3.00;75.90
75105;DHT22;64778;47.314;8.466;2023-02-01T00:13:42;3.00;75.90
75105;DHT22;64778;47.314;8.466;2023-02-01T00:16:20;3.00;75.90
75105;DHT22;64778;47.314;8.466;2023-02-01T00:18:47;2.90;76.30
75105;DHT22;64778;47.314;8.466;2023-02-01T00:21:15;2.90;76.50
75105;DHT22;64778;47.314;8.466;2023-02-01T00:23:41;2.80;76.80
75105;DHT22;64778;47.314;8.466;2023-02-01T00:26:14;2.80;76.90
75105;DHT22;64778;47.314;8.466;2023-02-01T00:28:40;2.80;76.70
75105;DHT22;64778;47.314;8.466;2023-02-01T00:31:06;2.80;77.00
75105;DHT22;64778;47.314;8.466;2023-02-01T00:33:32;2.70;77.10
75105;DHT22;64778;47.314;8.466;2023-02-01T00:36:06;2.70;77.20
75105;DHT22;64778;47.314;8.466;2023-02-01T00:38:36;2.60;77.40
75105;DHT22;64778;47.314;8.466;2023-02-01T00:41:15;2.60;77.60
75105;DHT22;64778;47.314;8.466;2023-02-01T00:43:44;2.50;77.50
75105;DHT22;64778;47.314;8.466;2023-02-01T00:46:12;2.50;77.60
75105;DHT22;64778;47.314;8.466;2023-02-01T00:48:38;2.40;77.80
75105;DHT22;64778;47.314;8.466;2023-02-01T00:51:11;2.40;77.70
75105;DHT22;64778;47.314;8.466;2023-02-01T00:53:38;2.50;77.80
75105;DHT22;64778;47.314;8.466;2023-02-01T00:56:04;2.40;77.80
75105;DHT22;64778;47.314;8.466;2023-02-01T00:58:31;2.40;77.80
75105;DHT22;64778;47.314;8.466;2023-02-01T01:01:05;2.50;77.40
75105;DHT22;64778;47.314;8.466;2023-02-01T01:03:36;2.40;77.70
75105;DHT22;64778;47.314;8.466;2023-02-01T01:06:05;2.40;77.70
75105;DHT22;64778;47.314;8.466;2023-02-01T01:08:34;2.30;78.10
75105;DHT22;64778;47.314;8.466;2023-02-01T01:13:33;2.30;77.60
75105;DHT22;64778;47.314;8.466;2023-02-01T01:16:02;2.20;78.10
75105;DHT22;64778;47.314;8.466;2023-02-01T01:18:30;2.30;77.60
75105;DHT22;64778;47.314;8.466;2023-02-01T01:20:56;2.20;77.70
75105;DHT22;64778;47.314;8.466;2023-02-01T01:23:22;2.20;77.70
75105;DHT22;64778;47.314;8.466;2023-02-01T01:25:47;2.20;77.50
75105;DHT22;64778;47.314;8.466;2023-02-01T01:28:15;2.20;77.10
75105;DHT22;64778;47.314;8.466;2023-02-01T01:30:41;2.30;77.00
75105;DHT22;64778;47.314;8.466;2023-02-01T01:33:07;2.20;77.00
75105;DHT22;64778;47.314;8.466;2023-02-01T01:35:33;2.30;76.90
75105;DHT22;64778;47.314;8.466;2023-02-01T01:38:01;2.30;77.00
75105;DHT22;64778;47.314;8.466;2023-02-01T01:40:30;2.20;77.10
75105;DHT22;64778;47.314;8.466;2023-02-01T01:42:56;2.20;77.30
75105;DHT22;64778;47.314;8.466;2023-02-01T01:45:26;2.20;77.50
75105;DHT22;64778;47.314;8.466;2023-02-01T01:48:04;2.20;77.70
75105;DHT22;64778;47.314;8.466;2023-02-01T01:50:49;2.10;77.60
75105;DHT22;64778;47.314;8.466;2023-02-01T01:53:26;2.10;77.60
75105;DHT22;64778;47.314;8.466;2023-02-01T01:55:57;2.10;77.50
75105;DHT22;64778;47.314;8.466;2023-02-01T01:58:28;2.00;77.10
75105;DHT22;64778;47.314;8.466;2023-02-01T02:00:57;2.10;77.10
75105;DHT22;64778;47.314;8.466;2023-02-01T02:03:41;2.00;77.20
75105;DHT22;64778;47.314;8.466;2023-02-01T02:06:39;1.90;77.30
75105;DHT22;64778;47.314;8.466;2023-02-01T02:09:01;1.90;77.70
75105;DHT22;64778;47.314;8.466;2023-02-01T02:11:30;1.70;78.50
75105;DHT22;64778;47.314;8.466;2023-02-01T02:13:57;1.70;78.80
75105;DHT22;64778;47.314;8.466;2023-02-01T02:45:14;1.30;80.60
75105;DHT22;64778;47.314;8.466;2023-02-01T02:56:52;1.00;81.90
75105;DHT22;64778;47.314;8.466;2023-02-01T02:59:40;1.00;82.00
75105;DHT22;64778;47.314;8.466;2023-02-01T03:02:27;1.00;81.80
75105;DHT22;64778;47.314;8.466;2023-02-01T03:05:11;1.10;81.80
75105;DHT22;64778;47.314;8.466;2023-02-01T03:13:06;1.10;81.90
75105;DHT22;64778;47.314;8.466;2023-02-01T03:18:15;1.00;82.40
75105;DHT22;64778;47.314;8.466;2023-02-01T03:20:47;0.90;83.00
75105;DHT22;64778;47.314;8.466;2023-02-01T03:23:17;0.90;83.10
75105;DHT22;64778;47.314;8.466;2023-02-01T03:25:44;0.80;83.30
75105;DHT22;64778;47.314;8.466;2023-02-01T03:28:12;0.90;83.10
75105;DHT22;64778;47.314;8.466;2023-02-01T03:30:42;0.90;82.80
75105;DHT22;64778;47.314;8.466;2023-02-01T03:33:16;0.80;82.90
75105;DHT22;64778;47.314;8.466;2023-02-01T03:52:05;0.80;84.90
75105;DHT22;64778;47.314;8.466;2023-02-01T03:54:35;0.90;84.00
75105;DHT22;64778;47.314;8.466;2023-02-01T03:57:09;0.90;84.00
75105;DHT22;64778;47.314;8.466;2023-02-01T03:59:40;1.00;83.50
75105;DHT22;64778;47.314;8.466;2023-02-01T04:02:06;1.10;83.30
75105;DHT22;64778;47.314;8.466;2023-02-01T04:04:33;1.10;83.30
75105;DHT22;64778;47.314;8.466;2023-02-01T04:07:01;1.10;83.20
75105;DHT22;64778;47.314;8.466;2023-02-01T04:09:29;1.10;83.20
75105;DHT22;64778;47.314;8.466;2023-02-01T04:11:55;1.20;82.60
75105;DHT22;64778;47.314;8.466;2023-02-01T04:14:23;1.40;81.90
75105;DHT22;64778;47.314;8.466;2023-02-01T04:16:53;1.60;81.10
75105;DHT22;64778;47.314;8.466;2023-02-01T04:19:21;1.70;80.60
75105;DHT22;64778;47.314;8.466;2023-02-01T04:21:47;1.70;80.40
75105;DHT22;64778;47.314;8.466;2023-02-01T04:24:12;1.70;80.60
75105;DHT22;64778;47.314;8.466;2023-02-01T04:26:40;1.70;80.80
75105;DHT22;64778;47.314;8.466;2023-02-01T04:29:09;1.70;80.20
75105;DHT22;64778;47.314;8.466;2023-02-01T04:31:35;1.70;80.50
75105;DHT22;64778;47.314;8.466;2023-02-01T04:34:01;1.70;80.80
75105;DHT22;64778;47.314;8.466;2023-02-01T04:36:27;1.70;80.90
75105;DHT22;64778;47.314;8.466;2023-02-01T04:38:55;1.80;80.80
75105;DHT22;64778;47.314;8.466;2023-02-01T04:41:23;1.90;80.70
75105;DHT22;64778;47.314;8.466;2023-02-01T04:43:51;1.90;80.40
75105;DHT22;64778;47.314;8.466;2023-02-01T04:46:18;1.90;79.90
75105;DHT22;64778;47.314;8.466;2023-02-01T04:48:46;2.00;79.90
75105;DHT22;64778;47.314;8.466;2023-02-01T04:51:16;2.00;79.40
75105;DHT22;64778;47.314;8.466;2023-02-01T04:53:44;2.00;79.60
75105;DHT22;64778;47.314;8.466;2023-02-01T04:56:14;1.90;79.60
75105;DHT22;64778;47.314;8.466;2023-02-01T04:58:42;1.80;80.10
75105;DHT22;64778;47.314;8.466;2023-02-01T05:01:08;1.80;80.20
75105;DHT22;64778;47.314;8.466;2023-02-01T05:03:36;1.80;80.10
75105;DHT22;64778;47.314;8.466;2023-02-01T05:06:04;1.80;80.40
75105;DHT22;64778;47.314;8.466;2023-02-01T05:08:32;1.70;81.20
75105;DHT22;64778;47.314;8.466;2023-02-01T05:10:58;1.70;81.10
75105;DHT22;64778;47.314;8.466;2023-02-01T05:13:30;1.80;80.80
75105;DHT22;64778;47.314;8.466;2023-02-01T05:16:16;2.00;80.10
75105;DHT22;64778;47.314;8.466;2023-02-01T05:18:46;2.10;80.00
75105;DHT22;64778;47.314;8.466;2023-02-01T05:21:15;2.20;79.80
75105;DHT22;64778;47.314;8.466;2023-02-01T05:23:40;2.20;78.90
75105;DHT22;64778;47.314;8.466;2023-02-01T05:26:24;2.20;79.10
75105;DHT22;64778;47.314;8.466;2023-02-01T05:28:50;2.20;78.60
75105;DHT22;64778;47.314;8.466;2023-02-01T05:31:16;2.20;78.50
75105;DHT22;64778;47.314;8.466;2023-02-01T05:33:46;2.20;78.60
75105;DHT22;64778;47.314;8.466;2023-02-01T05:36:12;2.20;78.80
75105;DHT22;64778;47.314;8.466;2023-02-01T05:38:38;2.20;78.20
75105;DHT22;64778;47.314;8.466;2023-02-01T05:41:06;2.30;77.80
75105;DHT22;64778;47.314;8.466;2023-02-01T05:43:34;2.30;77.60
75105;DHT22;64778;47.314;8.466;2023-02-01T05:46:02;2.30;77.20
75105;DHT22;64778;47.314;8.466;2023-02-01T05:48:33;2.30;77.10
75105;DHT22;64778;47.314;8.466;2023-02-01T05:50:58;2.30;77.40
75105;DHT22;64778;47.314;8.466;2023-02-01T05:53:24;2.40;76.70
75105;DHT22;64778;47.314;8.466;2023-02-01T05:55:52;2.30;76.80
75105;DHT22;64778;47.314;8.466;2023-02-01T05:58:18;2.40;76.80
75105;DHT22;64778;47.314;8.466;2023-02-01T06:00:43;2.40;76.90
75105;DHT22;64778;47.314;8.466;2023-02-01T06:03:09;2.40;76.70
75105;DHT22;64778;47.314;8.466;2023-02-01T06:05:34;2.40;76.60
75105;DHT22;64778;47.314;8.466;2023-02-01T06:08:00;2.40;77.00
75105;DHT22;64778;47.314;8.466;2023-02-01T06:10:26;2.40;77.10
75105;DHT22;64778;47.314;8.466;2023-02-01T06:12:51;2.30;77.40
75105;DHT22;64778;47.314;8.466;2023-02-01T06:15:18;2.30;77.50
75105;DHT22;64778;47.314;8.466;2023-02-01T06:17:44;2.40;77.40
75105;DHT22;64778;47.314;8.466;2023-02-01T06:20:12;2.40;77.50
75105;DHT22;64778;47.314;8.466;2023-02-01T06:22:38;2.40;77.20
75105;DHT22;64778;47.314;8.466;2023-02-01T06:25:06;2.40;77.40
75105;DHT22;64778;47.314;8.466;2023-02-01T06:27:35;2.40;77.60
75105;DHT22;64778;47.314;8.466;2023-02-01T06:30:02;2.40;77.40
75105;DHT22;64778;47.314;8.466;2023-02-01T06:32:30;2.30;77.90
75105;DHT22;64778;47.314;8.466;2023-02-01T06:34:58;2.30;78.20
75105;DHT22;64778;47.314;8.466;2023-02-01T06:37:28;2.30;78.60
75105;DHT22;64778;47.314;8.466;2023-02-01T06:39:55;2.30;78.60
75105;DHT22;64778;47.314;8.466;2023-02-01T06:42:22;2.30;78.40
75105;DHT22;64778;47.314;8.466;2023-02-01T06:44:51;2.30;78.10
75105;DHT22;64778;47.314;8.466;2023-02-01T06:47:16;2.20;78.70
75105;DHT22;64778;47.314;8.466;2023-02-01T06:49:42;2.30;78.90
75105;DHT22;64778;47.314;8.466;2023-02-01T06:52:10;2.30;78.70
75105;DHT22;64778;47.314;8.466;2023-02-01T06:54:36;2.30;78.10
75105;DHT22;64778;47.314;8.466;2023-02-01T06:57:03;2.30;77.80
75105;DHT22;64778;47.314;8.466;2023-02-01T06:59:28;2.40;77.90
75105;DHT22;64778;47.314;8.466;2023-02-01T07:01:54;2.40;77.50
75105;DHT22;64778;47.314;8.466;2023-02-01T07:04:20;2.40;77.80
75105;DHT22;64778;47.314;8.466;2023-02-01T07:06:48;2.40;77.80
75105;DHT22;64778;47.314;8.466;2023-02-01T07:09:13;2.40;77.20
75105;DHT22;64778;47.314;8.466;2023-02-01T07:11:40;2.40;77.20
75105;DHT22;64778;47.314;8.466;2023-02-01T07:14:14;2.50;77.20
75105;DHT22;64778;47.314;8.466;2023-02-01T07:16:42;2.50;77.20
75105;DHT22;64778;47.314;8.466;2023-02-01T07:19:08;2.50;77.60
75105;DHT22;64778;47.314;8.466;2023-02-01T07:21:35;2.40;78.50
75105;DHT22;64778;47.314;8.466;2023-02-01T07:24:02;2.40;78.60
75105;DHT22;64778;47.314;8.466;2023-02-01T07:26:28;2.50;78.20
75105;DHT22;64778;47.314;8.466;2023-02-01T07:28:54;2.50;77.40
75105;DHT22;64778;47.314;8.466;2023-02-01T07:31:22;2.50;77.40
75105;DHT22;64778;47.314;8.466;2023-02-01T07:33:48;2.60;77.10
75105;DHT22;64778;47.314;8.466;2023-02-01T07:36:17;2.50;77.20
75105;DHT22;64778;47.314;8.466;2023-02-01T07:38:42;2.50;77.50
75105;DHT22;64778;47.314;8.466;2023-02-01T07:41:08;2.50;77.60
75105;DHT22;64778;47.314;8.466;2023-02-01T07:43:34;2.60;77.40
75105;DHT22;64778;47.314;8.466;2023-02-01T07:46:02;2.60;77.40
75105;DHT22;64778;47.314;8.466;2023-02-01T07:48:31;2.60;77.60
75105;DHT22;64778;47.314;8.466;2023-02-01T07:50:57;2.60;78.10
75105;DHT22;64778;47.314;8.466;2023-02-01T07:53:23;2.60;78.50
75105;DHT22;64778;47.314;8.466;2023-02-01T07:55:51;2.60;78.80
75105;DHT22;64778;47.314;8.466;2023-02-01T07:58:17;2.60;78.60
75105;DHT22;64778;47.314;8.466;2023-02-01T08:00:42;2.60;78.70
75105;DHT22;64778;47.314;8.466;2023-02-01T08:03:27;2.60;78.70
75105;DHT22;64778;47.314;8.466;2023-02-01T08:05:55;2.60;78.50
75105;DHT22;64778;47.314;8.466;2023-02-01T08:08:21;2.60;78.40
75105;DHT22;64778;47.314;8.466;2023-02-01T08:10:49;2.60;78.10
75105;DHT22;64778;47.314;8.466;2023-02-01T08:13:14;2.70;78.20
75105;DHT22;64778;47.314;8.466;2023-02-01T08:15:40;2.80;78.00
75105;DHT22;64778;47.314;8.466;2023-02-01T08:18:10;2.80;77.50
75105;DHT22;64778;47.314;8.466;2023-02-01T08:20:36;2.70;77.70
75105;DHT22;64778;47.314;8.466;2023-02-01T08:23:07;2.70;77.60
75105;DHT22;64778;47.314;8.466;2023-02-01T08:25:34;2.80;78.20
75105;DHT22;64778;47.314;8.466;2023-02-01T08:28:03;2.80;78.00
75105;DHT22;64778;47.314;8.466;2023-02-01T08:30:29;2.80;78.00
75105;DHT22;64778;47.314;8.466;2023-02-01T08:32:54;2.90;78.00
75105;DHT22;64778;47.314;8.466;2023-02-01T08:35:20;2.90;78.10
75105;DHT22;64778;47.314;8.466;2023-02-01T08:37:45;2.90;78.20
75105;DHT22;64778;47.314;8.466;2023-02-01T08:40:11;2.90;77.90
75105;DHT22;64778;47.314;8.466;2023-02-01T08:42:39;2.90;77.90
75105;DHT22;64778;47.314;8.466;2023-02-01T08:45:23;3.00;77.90
75105;DHT22;64778;47.314;8.466;2023-02-01T08:47:51;3.00;77.60
75105;DHT22;64778;47.314;8.466;2023-02-01T08:50:17;3.00;77.90
75105;DHT22;64778;47.314;8.466;2023-02-01T08:52:46;3.00;78.10
75105;DHT22;64778;47.314;8.466;2023-02-01T08:55:14;3.00;78.10
75105;DHT22;64778;47.314;8.466;2023-02-01T08:57:40;2.90;77.80
75105;DHT22;64778;47.314;8.466;2023-02-01T09:00:07;2.90;78.40
75105;DHT22;64778;47.314;8.466;2023-02-01T09:02:35;2.90;78.30
75105;DHT22;64778;47.314;8.466;2023-02-01T09:05:03;3.00;78.50
75105;DHT22;64778;47.314;8.466;2023-02-01T09:07:32;2.90;78.70
75105;DHT22;64778;47.314;8.466;2023-02-01T09:09:57;3.00;78.90
75105;DHT22;64778;47.314;8.466;2023-02-01T09:12:30;3.00;78.60
75105;DHT22;64778;47.314;8.466;2023-02-01T09:14:58;3.10;78.50
75105;DHT22;64778;47.314;8.466;2023-02-01T09:17:27;3.10;78.60
75105;DHT22;64778;47.314;8.466;2023-02-01T09:19:55;3.20;78.30
75105;DHT22;64778;47.314;8.466;2023-02-01T09:22:22;3.20;78.20
75105;DHT22;64778;47.314;8.466;2023-02-01T09:24:51;3.30;78.30
75105;DHT22;64778;47.314;8.466;2023-02-01T09:27:17;3.30;78.40
75105;DHT22;64778;47.314;8.466;2023-02-01T09:29:45;3.30;78.30
75105;DHT22;64778;47.314;8.466;2023-02-01T09:32:10;3.40;78.00
75105;DHT22;64778;47.314;8.466;2023-02-01T09:34:38;3.50;77.00
75105;DHT22;64778;47.314;8.466;2023-02-01T09:37:06;3.50;77.40
75105;DHT22;64778;47.314;8.466;2023-02-01T09:39:32;3.50;77.30
75105;DHT22;64778;47.314;8.466;2023-02-01T09:47:30;3.70;77.30
75105;DHT22;64778;47.314;8.466;2023-02-01T09:52:43;3.70;78.20
75105;DHT22;64778;47.314;8.466;2023-02-01T09:55:20;3.70;77.20
75105;DHT22;64778;47.314;8.466;2023-02-01T09:58:14;3.80;76.70
75105;DHT22;64778;47.314;8.466;2023-02-01T10:00:54;3.80;76.80
75105;DHT22;64778;47.314;8.466;2023-02-01T10:03:23;4.00;76.30
75105;DHT22;64778;47.314;8.466;2023-02-01T10:12:21;4.20;75.20
75105;DHT22;64778;47.314;8.466;2023-02-01T10:20:56;4.10;75.60
75105;DHT22;64778;47.314;8.466;2023-02-01T10:26:25;4.40;74.70
75105;DHT22;64778;47.314;8.466;2023-02-01T10:29:03;4.50;74.80
75105;DHT22;64778;47.314;8.466;2023-02-01T10:31:33;4.70;73.20
75105;DHT22;64778;47.314;8.466;2023-02-01T10:34:36;4.60;73.50
75105;DHT22;64778;47.314;8.466;2023-02-01T10:37:10;4.70;73.10
75105;DHT22;64778;47.314;8.466;2023-02-01T10:39:37;4.80;73.50
75105;DHT22;64778;47.314;8.466;2023-02-01T10:42:02;5.00;72.20
75105;DHT22;64778;47.314;8.466;2023-02-01T10:44:30;5.20;71.80
75105;DHT22;64778;47.314;8.466;2023-02-01T10:47:01;5.40;71.00
75105;DHT22;64778;47.314;8.466;2023-02-01T10:49:33;5.60;69.50
75105;DHT22;64778;47.314;8.466;2023-02-01T10:52:12;5.60;70.40
75105;DHT22;64778;47.314;8.466;2023-02-01T10:54:39;5.40;69.60
75105;DHT22;64778;47.314;8.466;2023-02-01T10:57:24;5.40;70.50
75105;DHT22;64778;47.314;8.466;2023-02-01T10:59:52;5.30;71.10
75105;DHT22;64778;47.314;8.466;2023-02-01T11:05:08;5.10;71.70
75105;DHT22;64778;47.314;8.466;2023-02-01T11:07:53;5.10;72.20
75105;DHT22;64778;47.314;8.466;2023-02-01T11:10:41;4.90;72.90
75105;DHT22;64778;47.314;8.466;2023-02-01T11:13:15;4.70;74.00
75105;DHT22;64778;47.314;8.466;2023-02-01T11:15:46;4.70;74.70
75105;DHT22;64778;47.314;8.466;2023-02-01T11:18:20;4.80;73.80
75105;DHT22;64778;47.314;8.466;2023-02-01T11:20:50;4.80;73.60
75105;DHT22;64778;47.314;8.466;2023-02-01T11:23:20;4.90;74.00
75105;DHT22;64778;47.314;8.466;2023-02-01T11:25:54;5.10;73.10
75105;DHT22;64778;47.314;8.466;2023-02-01T11:28:31;5.20;72.90
75105;DHT22;64778;47.314;8.466;2023-02-01T11:31:01;5.50;72.20
75105;DHT22;64778;47.314;8.466;2023-02-01T11:33:31;5.60;69.80
75105;DHT22;64778;47.314;8.466;2023-02-01T11:36:06;5.70;70.90
75105;DHT22;64778;47.314;8.466;2023-02-01T11:38:33;6.00;69.60
75105;DHT22;64778;47.314;8.466;2023-02-01T11:41:25;6.00;70.10
75105;DHT22;64778;47.314;8.466;2023-02-01T11:43:59;6.00;69.30
75105;DHT22;64778;47.314;8.466;2023-02-01T11:46:30;5.70;70.50
75105;DHT22;64778;47.314;8.466;2023-02-01T11:49:23;6.20;69.40
75105;DHT22;64778;47.314;8.466;2023-02-01T12:05:00;7.60;63.00
75105;DHT22;64778;47.314;8.466;2023-02-01T12:17:54;5.80;67.90
75105;DHT22;64778;47.314;8.466;2023-02-01T12:23:03;6.80;66.00
75105;DHT22;64778;47.314;8.466;2023-02-01T12:43:18;8.60;57.70
75105;DHT22;64778;47.314;8.466;2023-02-01T12:46:01;7.80;60.60
75105;DHT22;64778;47.314;8.466;2023-02-01T12:50:56;8.50;59.30
75105;DHT22;64778;47.314;8.466;2023-02-01T12:53:30;8.00;59.30
75105;DHT22;64778;47.314;8.466;2023-02-01T12:56:03;8.50;57.90
75105;DHT22;64778;47.314;8.466;2023-02-01T12:58:43;8.60;59.00
75105;DHT22;64778;47.314;8.466;2023-02-01T13:04:08;9.90;55.10
75105;DHT22;64778;47.314;8.466;2023-02-01T13:06:34;10.60;53.20
75105;DHT22;64778;47.314;8.466;2023-02-01T13:11:38;9.30;55.20
75105;DHT22;64778;47.314;8.466;2023-02-01T13:14:14;9.40;55.80
75105;DHT22;64778;47.314;8.466;2023-02-01T13:16:45;10.60;53.40
75105;DHT22;64778;47.314;8.466;2023-02-01T13:19:14;11.50;50.70
75105;DHT22;64778;47.314;8.466;2023-02-01T13:21:43;11.70;48.80
75105;DHT22;64778;47.314;8.466;2023-02-01T13:24:32;11.10;49.20
75105;DHT22;64778;47.314;8.466;2023-02-01T13:27:01;10.90;50.80
75105;DHT22;64778;47.314;8.466;2023-02-01T13:29:28;11.20;49.40
75105;DHT22;64778;47.314;8.466;2023-02-01T13:39:34;12.70;44.20
75105;DHT22;64778;47.314;8.466;2023-02-01T13:42:13;12.10;46.70
75105;DHT22;64778;47.314;8.466;2023-02-01T13:44:42;10.10;49.90
75105;DHT22;64778;47.314;8.466;2023-02-01T13:47:33;9.80;52.40
75105;DHT22;64778;47.314;8.466;2023-02-01T13:52:44;8.20;57.90
75105;DHT22;64778;47.314;8.466;2023-02-01T13:57:45;7.30;61.40
75105;DHT22;64778;47.314;8.466;2023-02-01T14:03:06;7.10;62.40
75105;DHT22;64778;47.314;8.466;2023-02-01T14:13:28;6.70;64.00
75105;DHT22;64778;47.314;8.466;2023-02-01T14:26:26;6.20;66.70
75105;DHT22;64778;47.314;8.466;2023-02-01T14:31:58;6.00;67.70
75105;DHT22;64778;47.314;8.466;2023-02-01T14:37:10;6.80;65.40
75105;DHT22;64778;47.314;8.466;2023-02-01T14:42:21;7.50;61.10
75105;DHT22;64778;47.314;8.466;2023-02-01T14:44:53;7.80;60.50
75105;DHT22;64778;47.314;8.466;2023-02-01T14:49:58;7.50;60.90
75105;DHT22;64778;47.314;8.466;2023-02-01T14:52:35;6.90;62.10
75105;DHT22;64778;47.314;8.466;2023-02-01T14:55:04;6.20;64.90
75105;DHT22;64778;47.314;8.466;2023-02-01T14:57:31;6.00;66.00
75105;DHT22;64778;47.314;8.466;2023-02-01T15:00:00;5.80;66.40
75105;DHT22;64778;47.314;8.466;2023-02-01T15:02:33;5.70;66.60
75105;DHT22;64778;47.314;8.466;2023-02-01T15:05:00;5.80;66.60
75105;DHT22;64778;47.314;8.466;2023-02-01T15:07:25;5.70;66.20
75105;DHT22;64778;47.314;8.466;2023-02-01T15:09:53;5.70;66.60
75105;DHT22;64778;47.314;8.466;2023-02-01T15:12:24;5.60;66.60
75105;DHT22;64778;47.314;8.466;2023-02-01T15:18:01;5.60;65.80
75105;DHT22;64778;47.314;8.466;2023-02-01T15:20:30;5.60;66.10
75105;DHT22;64778;47.314;8.466;2023-02-01T15:25:22;5.60;64.20
75105;DHT22;64778;47.314;8.466;2023-02-01T15:27:48;5.50;63.50
75105;DHT22;64778;47.314;8.466;2023-02-01T15:32:45;5.60;62.90
75105;DHT22;64778;47.314;8.466;2023-02-01T15:46:33;10.40;46.50
75105;DHT22;64778;47.314;8.466;2023-02-01T15:49:02;10.90;44.00
75105;DHT22;64778;47.314;8.466;2023-02-01T15:51:29;9.20;47.00
75105;DHT22;64778;47.314;8.466;2023-02-01T15:54:02;7.80;50.30
75105;DHT22;64778;47.314;8.466;2023-02-01T15:56:36;6.80;53.50
75105;DHT22;64778;47.314;8.466;2023-02-01T15:59:02;6.20;55.60
75105;DHT22;64778;47.314;8.466;2023-02-01T16:01:30;6.00;56.70
75105;DHT22;64778;47.314;8.466;2023-02-01T16:06:44;5.60;58.70
75105;DHT22;64778;47.314;8.466;2023-02-01T16:09:12;5.40;60.30
75105;DHT22;64778;47.314;8.466;2023-02-01T16:11:58;5.40;60.20
75105;DHT22;64778;47.314;8.466;2023-02-01T16:14:26;5.30;60.60
75105;DHT22;64778;47.314;8.466;2023-02-01T16:16:54;5.20;60.40
75105;DHT22;64778;47.314;8.466;2023-02-01T16:19:20;5.10;61.30
75105;DHT22;64778;47.314;8.466;2023-02-01T16:21:56;5.00;61.80
75105;DHT22;64778;47.314;8.466;2023-02-01T16:24:21;4.90;62.00
75105;DHT22;64778;47.314;8.466;2023-02-01T16:26:52;5.00;62.40
75105;DHT22;64778;47.314;8.466;2023-02-01T16:29:20;4.90;62.20
75105;DHT22;64778;47.314;8.466;2023-02-01T16:31:48;4.90;62.40
75105;DHT22;64778;47.314;8.466;2023-02-01T16:34:17;4.90;63.10
75105;DHT22;64778;47.314;8.466;2023-02-01T16:36:47;4.80;63.00
75105;DHT22;64778;47.314;8.466;2023-02-01T16:39:17;4.80;63.30
75105;DHT22;64778;47.314;8.466;2023-02-01T16:41:43;4.80;63.30
75105;DHT22;64778;47.314;8.466;2023-02-01T16:44:08;4.80;63.50
75105;DHT22;64778;47.314;8.466;2023-02-01T16:46:35;4.80;63.50
75105;DHT22;64778;47.314;8.466;2023-02-01T16:49:01;4.70;63.60
75105;DHT22;64778;47.314;8.466;2023-02-01T16:51:33;4.70;64.20
75105;DHT22;64778;47.314;8.466;2023-02-01T16:54:01;4.70;64.20
75105;DHT22;64778;47.314;8.466;2023-02-01T16:56:32;4.70;64.20
75105;DHT22;64778;47.314;8.466;2023-02-01T16:58:58;4.70;64.20
75105;DHT22;64778;47.314;8.466;2023-02-01T17:01:24;4.70;64.30
75105;DHT22;64778;47.314;8.466;2023-02-01T17:03:50;4.70;64.90
75105;DHT22;64778;47.314;8.466;2023-02-01T17:06:21;4.60;64.50
75105;DHT22;64778;47.314;8.466;2023-02-01T17:08:53;4.60;64.30
75105;DHT22;64778;47.314;8.466;2023-02-01T17:11:20;4.60;64.60
75105;DHT22;64778;47.314;8.466;2023-02-01T17:13:45;4.60;64.40
75105;DHT22;64778;47.314;8.466;2023-02-01T17:18:53;4.60;64.80
75105;DHT22;64778;47.314;8.466;2023-02-01T17:21:20;4.60;64.90
75105;DHT22;64778;47.314;8.466;2023-02-01T17:23:48;4.50;65.10
75105;DHT22;64778;47.314;8.466;2023-02-01T17:26:13;4.60;64.60
75105;DHT22;64778;47.314;8.466;2023-02-01T17:28:40;4.60;64.50
75105;DHT22;64778;47.314;8.466;2023-02-01T17:31:08;4.70;64.70
75105;DHT22;64778;47.314;8.466;2023-02-01T17:33:36;4.60;64.90
75105;DHT22;64778;47.314;8.466;2023-02-01T17:36:02;4.60;64.40
75105;DHT22;64778;47.314;8.466;2023-02-01T17:38:32;4.60;64.90
75105;DHT22;64778;47.314;8.466;2023-02-01T17:41:03;4.60;65.20
75105;DHT22;64778;47.314;8.466;2023-02-01T17:43:29;4.60;65.30
75105;DHT22;64778;47.314;8.466;2023-02-01T17:46:04;4.50;65.20
75105;DHT22;64778;47.314;8.466;2023-02-01T17:48:31;4.60;64.80
75105;DHT22;64778;47.314;8.466;2023-02-01T17:50:56;4.60;64.80
75105;DHT22;64778;47.314;8.466;2023-02-01T17:53:28;4.60;64.70
75105;DHT22;64778;47.314;8.466;2023-02-01T17:55:54;4.60;65.00
75105;DHT22;64778;47.314;8.466;2023-02-01T17:58:23;4.60;65.30
75105;DHT22;64778;47.314;8.466;2023-02-01T18:00:52;4.50;65.50
75105;DHT22;64778;47.314;8.466;2023-02-01T18:03:26;4.50;65.90
75105;DHT22;64778;47.314;8.466;2023-02-01T18:05:56;4.50;66.20
75105;DHT22;64778;47.314;8.466;2023-02-01T18:08:24;4.50;66.30
75105;DHT22;64778;47.314;8.466;2023-02-01T18:10:53;4.50;66.60
75105;DHT22;64778;47.314;8.466;2023-02-01T18:13:20;4.50;66.80
75105;DHT22;64778;47.314;8.466;2023-02-01T18:15:48;4.50;66.80
75105;DHT22;64778;47.314;8.466;2023-02-01T18:18:14;4.50;67.20
75105;DHT22;64778;47.314;8.466;2023-02-01T18:20:43;4.40;67.20
75105;DHT22;64778;47.314;8.466;2023-02-01T18:23:18;4.40;67.20
75105;DHT22;64778;47.314;8.466;2023-02-01T18:25:47;4.40;67.50
75105;DHT22;64778;47.314;8.466;2023-02-01T18:28:14;4.40;67.60
75105;DHT22;64778;47.314;8.466;2023-02-01T18:30:44;4.40;67.40
75105;DHT22;64778;47.314;8.466;2023-02-01T18:33:19;4.40;67.40
75105;DHT22;64778;47.314;8.466;2023-02-01T18:35:49;4.40;67.70
75105;DHT22;64778;47.314;8.466;2023-02-01T18:38:17;4.40;68.00
75105;DHT22;64778;47.314;8.466;2023-02-01T18:40:49;4.40;68.40
75105;DHT22;64778;47.314;8.466;2023-02-01T18:43:16;4.30;67.90
75105;DHT22;64778;47.314;8.466;2023-02-01T18:45:44;4.40;67.80
75105;DHT22;64778;47.314;8.466;2023-02-01T18:48:11;4.30;68.40
75105;DHT22;64778;47.314;8.466;2023-02-01T18:50:40;4.30;68.40
75105;DHT22;64778;47.314;8.466;2023-02-01T18:53:17;4.30;68.70
75105;DHT22;64778;47.314;8.466;2023-02-01T18:55:46;4.40;67.70
75105;DHT22;64778;47.314;8.466;2023-02-01T18:58:14;4.30;67.80
75105;DHT22;64778;47.314;8.466;2023-02-01T19:00:41;4.30;67.60
75105;DHT22;64778;47.314;8.466;2023-02-01T19:03:13;4.30;67.70
75105;DHT22;64778;47.314;8.466;2023-02-01T19:05:39;4.40;67.40
75105;DHT22;64778;47.314;8.466;2023-02-01T19:08:05;4.40;67.20
75105;DHT22;64778;47.314;8.466;2023-02-01T19:10:32;4.40;67.40
75105;DHT22;64778;47.314;8.466;2023-02-01T19:13:05;4.30;67.70
75105;DHT22;64778;47.314;8.466;2023-02-01T19:15:31;4.40;67.60
75105;DHT22;64778;47.314;8.466;2023-02-01T19:17:58;4.40;67.50
75105;DHT22;64778;47.314;8.466;2023-02-01T19:20:25;4.30;67.50
75105;DHT22;64778;47.314;8.466;2023-02-01T19:22:54;4.30;68.30
75105;DHT22;64778;47.314;8.466;2023-02-01T19:25:26;4.30;68.80
75105;DHT22;64778;47.314;8.466;2023-02-01T19:27:54;4.30;68.20
75105;DHT22;64778;47.314;8.466;2023-02-01T19:30:24;4.20;68.40
75105;DHT22;64778;47.314;8.466;2023-02-01T19:32:50;4.20;68.60